Taunsa Weather



Taunsa's Current Weather

Temprature 16.24o overcast clouds

overcast clouds

Rain: 0 %

Min Temprature16.24o
Max Temprature16.24o
Humidity50
Wind Speed5.08 m/h
Sun Rise07:11:55
Sun Set17:47:47
Current Time: 27-Jan-2020 18:27:08
Lat/Lon: 30.7, 70.65




Taunsa's Geo Location



Taunsa's Weather Forecast

Time Overall Temp Min Temp Max Temp Humidity Wind Speed Rain
27-Jan-2020 (Mon)
20:00:00 overcast clouds 12.810 12.810 12.810 69 0.87 m/h 0 %
23:00:00 overcast clouds 11.800 11.800 11.800 73 2.35 m/h 0 %
28-Jan-2020 (Tue)
02:00:00 overcast clouds 11.590 11.590 11.590 68 2.3 m/h 0 %
05:00:00 overcast clouds 10.850 10.850 10.850 67 2.64 m/h 0 %
08:00:00 scattered clouds 10.940 10.940 10.940 66 3.28 m/h 0 %
11:00:00 few clouds 14.770 14.770 14.770 50 6 m/h 0 %
14:00:00 clear sky 16.940 16.940 16.940 37 4.49 m/h 0 %
17:00:00 clear sky 16.600 16.600 16.600 38 4.71 m/h 0 %
20:00:00 clear sky 13.110 13.110 13.110 53 1.49 m/h 0 %
23:00:00 clear sky 11.920 11.920 11.920 56 1.41 m/h 0 %
29-Jan-2020 (Wed)
02:00:00 clear sky 11.280 11.280 11.280 58 2.1 m/h 0 %
05:00:00 clear sky 9.150 9.150 9.150 67 0.81 m/h 0 %
08:00:00 clear sky 9.320 9.320 9.320 76 1.38 m/h 0 %
11:00:00 clear sky 13.980 13.980 13.980 46 0.92 m/h 0 %
14:00:00 clear sky 16.600 16.600 16.600 35 2.34 m/h 0 %
17:00:00 clear sky 16.680 16.680 16.680 34 1.74 m/h 0 %
20:00:00 clear sky 13.930 13.930 13.930 42 2.4 m/h 0 %
23:00:00 clear sky 11.700 11.700 11.700 58 1.79 m/h 0 %
30-Jan-2020 (Thu)
02:00:00 clear sky 10.580 10.580 10.580 64 1.18 m/h 0 %
05:00:00 clear sky 9.200 9.200 9.200 65 0.65 m/h 0 %
08:00:00 few clouds 9.960 9.960 9.960 58 0.11 m/h 0 %
11:00:00 scattered clouds 14.870 14.870 14.870 34 0.56 m/h 0 %
14:00:00 clear sky 17.320 17.320 17.320 30 2.73 m/h 0 %
17:00:00 clear sky 17.000 17.000 17.000 32 2.82 m/h 0 %
20:00:00 clear sky 13.180 13.180 13.180 45 0.3 m/h 0 %
23:00:00 clear sky 11.550 11.550 11.550 48 0.5 m/h 0 %
31-Jan-2020 (Fri)
02:00:00 clear sky 10.830 10.830 10.830 48 1.3 m/h 0 %
05:00:00 clear sky 9.880 9.880 9.880 52 1.05 m/h 0 %
08:00:00 broken clouds 11.400 11.400 11.400 48 1.78 m/h 0 %
11:00:00 broken clouds 15.940 15.940 15.940 35 2.3 m/h 0 %
14:00:00 overcast clouds 18.350 18.350 18.350 29 2.86 m/h 0 %
17:00:00 broken clouds 17.880 17.880 17.880 31 3.52 m/h 0 %
20:00:00 clear sky 14.650 14.650 14.650 37 2.44 m/h 0 %
23:00:00 clear sky 12.600 12.600 12.600 41 1.26 m/h 0 %
01-Feb-2020 (Sat)
02:00:00 clear sky 11.440 11.440 11.440 38 1.1 m/h 0 %
05:00:00 clear sky 10.120 10.120 10.120 36 1.17 m/h 0 %
08:00:00 clear sky 11.260 11.260 11.260 35 1.17 m/h 0 %
11:00:00 clear sky 17.220 17.220 17.220 23 0.9 m/h 0 %
14:00:00 clear sky 19.010 19.010 19.010 22 1.86 m/h 0 %
17:00:00 clear sky 18.760 18.760 18.760 23 2.14 m/h 0 %

Famous Cities (61)